createdAt,value
2022-08-01T00:02:02.231Z,3.07
2022-08-01T00:04:29.823Z,3.10
2022-08-01T00:06:57.303Z,4.37
2022-08-01T00:09:24.817Z,3.60
2022-08-01T00:11:59.536Z,3.57
2022-08-01T00:14:32.173Z,5.00
2022-08-01T00:17:06.891Z,4.20
2022-08-01T00:19:34.973Z,4.73
2022-08-01T00:22:02.593Z,4.03
2022-08-01T00:24:30.382Z,3.13
2022-08-01T00:26:57.833Z,4.37
2022-08-01T00:30:12.644Z,4.40
2022-08-01T00:32:12.793Z,4.27
2022-08-01T00:34:40.265Z,4.03
2022-08-01T00:37:07.850Z,3.47
2022-08-01T00:39:35.326Z,3.87
2022-08-01T00:42:10.084Z,3.77
2022-08-01T00:44:37.903Z,3.57
2022-08-01T00:47:05.693Z,5.53
2022-08-01T00:49:33.223Z,3.93
2022-08-01T00:52:00.909Z,4.13
2022-08-01T00:54:28.813Z,3.40
2022-08-01T00:56:56.433Z,4.73
2022-08-01T00:59:25.893Z,3.07
2022-08-01T01:01:53.813Z,3.90
2022-08-01T01:04:21.408Z,3.63
2022-08-01T01:07:01.185Z,4.03
2022-08-01T01:09:48.959Z,4.67
2022-08-01T01:12:22.598Z,3.70
2022-08-01T01:14:56.657Z,4.20
2022-08-01T01:17:49.658Z,3.80
2022-08-01T01:20:17.904Z,4.20
2022-08-01T01:22:54.465Z,3.60
2022-08-01T01:25:40.544Z,3.73
2022-08-01T01:28:11.685Z,4.73
2022-08-01T01:30:40.329Z,3.50
2022-08-01T01:33:08.362Z,3.83
2022-08-01T01:35:37.911Z,4.17
2022-08-01T01:38:22.758Z,4.07
2022-08-01T01:40:51.965Z,3.57
2022-08-01T01:43:19.976Z,4.17
2022-08-01T01:45:48.731Z,4.30
2022-08-01T01:48:18.620Z,4.80
2022-08-01T01:50:47.797Z,4.87
2022-08-01T01:53:20.341Z,5.20
2022-08-01T01:55:50.128Z,4.97
2022-08-01T01:58:18.740Z,5.30
2022-08-01T02:00:47.143Z,4.63
2022-08-01T02:03:15.146Z,4.80
2022-08-01T02:05:42.947Z,5.17
2022-08-01T02:08:11.637Z,5.60
2022-08-01T02:10:40.882Z,5.70
2022-08-01T02:13:08.741Z,5.80
2022-08-01T02:15:37.366Z,5.50
2022-08-01T02:18:05.089Z,5.73
2022-08-01T02:20:32.635Z,6.30
2022-08-01T02:23:10.050Z,6.20
2022-08-01T02:26:11.104Z,7.33
2022-08-01T02:28:42.722Z,6.40
2022-08-01T02:31:13.674Z,6.47
2022-08-01T02:33:43.430Z,6.07
2022-08-01T02:36:30.151Z,7.23
2022-08-01T02:39:00.663Z,6.63
2022-08-01T02:41:28.625Z,6.57
2022-08-01T02:44:00.312Z,6.57
2022-08-01T02:46:31.443Z,6.07
2022-08-01T02:49:00.711Z,7.17
2022-08-01T02:51:28.394Z,7.00
2022-08-01T02:53:56.590Z,6.27
2022-08-01T02:56:24.596Z,6.87
2022-08-01T02:58:52.688Z,6.97
2022-08-01T03:01:21.563Z,6.67
2022-08-01T03:03:49.713Z,7.53
2022-08-01T03:06:18.350Z,6.07
2022-08-01T03:08:46.549Z,6.33
2022-08-01T03:11:14.401Z,4.70
2022-08-01T03:13:43.357Z,5.67
2022-08-01T03:16:12.797Z,5.73
2022-08-01T03:18:41.162Z,8.27
2022-08-01T03:21:09.480Z,7.07
2022-08-01T03:23:38.622Z,7.83
2022-08-01T03:26:06.993Z,6.03
2022-08-01T03:28:34.950Z,8.00
2022-08-01T03:31:03.652Z,8.07
2022-08-01T03:33:31.165Z,6.70
2022-08-01T03:36:01.879Z,7.70
2022-08-01T03:38:31.639Z,9.60
2022-08-01T03:41:04.071Z,7.57
2022-08-01T03:43:35.726Z,9.37
2022-08-01T03:46:04.779Z,10.20
2022-08-01T03:48:33.579Z,11.37
2022-08-01T03:51:01.456Z,9.47
2022-08-01T03:53:31.574Z,10.20
2022-08-01T03:56:01.695Z,11.17
2022-08-01T03:58:30.154Z,10.27
2022-08-01T04:00:57.979Z,9.93
2022-08-01T04:03:25.870Z,9.90
2022-08-01T04:05:53.380Z,10.07
2022-08-01T04:08:20.978Z,10.60
2022-08-01T04:10:50.213Z,10.43
2022-08-01T04:13:18.047Z,10.33
2022-08-01T04:15:46.000Z,11.20
2022-08-01T04:18:13.472Z,9.03
2022-08-01T04:20:40.952Z,10.07
2022-08-01T04:23:09.682Z,10.20
2022-08-01T04:25:38.368Z,9.73
2022-08-01T04:28:07.153Z,11.83
2022-08-01T04:30:36.215Z,11.17
2022-08-01T04:33:05.472Z,10.97
2022-08-01T04:36:01.394Z,12.13
2022-08-01T04:38:24.160Z,11.57
2022-08-01T04:40:52.382Z,8.57
2022-08-01T04:43:20.077Z,11.73
2022-08-01T04:45:48.786Z,11.10
2022-08-01T04:48:18.262Z,12.20
2022-08-01T04:50:45.823Z,11.03
2022-08-01T04:53:17.455Z,10.20
2022-08-01T04:55:45.445Z,8.90
2022-08-01T04:58:17.408Z,10.90
2022-08-01T05:00:45.688Z,12.47
2022-08-01T05:03:13.175Z,11.87
2022-08-01T05:05:40.854Z,11.77
2022-08-01T05:08:08.364Z,11.53
2022-08-01T05:10:35.981Z,9.60
2022-08-01T05:13:03.802Z,10.40
2022-08-01T05:15:31.335Z,12.07
2022-08-01T05:17:58.902Z,11.97
2022-08-01T05:20:26.420Z,11.47
2022-08-01T05:22:53.890Z,10.73
2022-08-01T05:25:56.119Z,11.23
2022-08-01T05:28:08.849Z,12.60
2022-08-01T05:30:36.360Z,11.23
2022-08-01T05:33:03.894Z,10.30
2022-08-01T05:35:48.351Z,12.33
2022-08-01T05:38:16.874Z,10.40
2022-08-01T05:40:44.356Z,10.93
2022-08-01T05:43:14.950Z,10.37
2022-08-01T05:45:45.399Z,10.57
2022-08-01T05:48:16.210Z,11.23
2022-08-01T05:50:46.822Z,11.00
2022-08-01T05:53:17.335Z,11.00
2022-08-01T05:55:47.853Z,11.20
2022-08-01T05:58:18.394Z,10.03
2022-08-01T06:00:49.118Z,9.83
2022-08-01T06:03:19.766Z,11.33
2022-08-01T06:05:50.346Z,9.60
2022-08-01T06:08:21.135Z,10.00
2022-08-01T06:10:51.698Z,9.87
2022-08-01T06:13:22.268Z,9.40
2022-08-01T06:15:52.769Z,9.63
2022-08-01T06:18:23.003Z,10.73
2022-08-01T06:20:51.705Z,9.70
2022-08-01T06:23:32.031Z,10.27
2022-08-01T06:26:01.838Z,9.60
2022-08-01T06:28:30.703Z,11.43
2022-08-01T06:30:59.368Z,9.87
2022-08-01T06:33:28.364Z,9.43
2022-08-01T06:35:58.414Z,10.43
2022-08-01T06:38:27.103Z,9.17
2022-08-01T06:40:55.598Z,10.10
2022-08-01T06:43:22.900Z,9.40
2022-08-01T06:45:50.057Z,8.97
2022-08-01T06:48:17.360Z,8.77
2022-08-01T06:50:44.914Z,9.43
2022-08-01T06:53:12.211Z,8.43
2022-08-01T06:55:39.406Z,7.87
2022-08-01T06:58:06.702Z,7.57
2022-08-01T07:00:33.982Z,7.13
2022-08-01T07:03:01.275Z,7.87
2022-08-01T07:05:28.918Z,8.53
2022-08-01T07:07:56.100Z,7.93
2022-08-01T07:10:23.322Z,8.17
2022-08-01T07:12:50.570Z,4.90
2022-08-01T07:15:17.769Z,5.33
2022-08-01T07:17:44.990Z,5.60
2022-08-01T07:20:16.095Z,6.13
2022-08-01T07:22:43.930Z,5.80
2022-08-01T07:25:15.034Z,4.40
2022-08-01T07:27:44.374Z,4.33
2022-08-01T07:30:11.930Z,3.83
2022-08-01T07:32:39.129Z,4.30
2022-08-01T07:35:06.908Z,4.33
2022-08-01T07:37:48.218Z,4.47
2022-08-01T07:40:18.530Z,4.07
2022-08-01T07:42:46.371Z,4.43
2022-08-01T07:45:14.680Z,3.33
2022-08-01T07:47:42.080Z,2.57
2022-08-01T07:50:09.564Z,3.17
2022-08-01T07:52:36.910Z,3.10
2022-08-01T07:55:04.483Z,3.57
2022-08-01T07:57:31.705Z,3.03
2022-08-01T07:59:59.171Z,3.70
2022-08-01T08:02:26.482Z,3.67
2022-08-01T08:04:53.876Z,4.10
2022-08-01T08:07:21.074Z,2.87
2022-08-01T08:09:51.155Z,3.13
2022-08-01T08:12:18.663Z,4.10
2022-08-01T08:14:55.726Z,4.07
2022-08-01T08:17:25.621Z,3.37
2022-08-01T08:19:52.894Z,3.67
2022-08-01T08:22:20.142Z,3.80
2022-08-01T08:24:47.342Z,4.43
2022-08-01T08:27:15.143Z,4.50
2022-08-01T08:29:42.490Z,4.87
2022-08-01T08:32:10.019Z,3.70
2022-08-01T08:34:37.416Z,4.40
2022-08-01T08:37:05.878Z,4.07
2022-08-01T08:39:41.955Z,4.53
2022-08-01T08:42:13.439Z,3.90
2022-08-01T08:44:43.375Z,2.30
2022-08-01T08:47:17.355Z,3.53
2022-08-01T08:49:50.205Z,3.10
2022-08-01T08:52:20.170Z,3.10
2022-08-01T08:54:48.612Z,3.07
2022-08-01T08:57:16.654Z,3.00
2022-08-01T08:59:48.064Z,3.40
2022-08-01T09:02:15.283Z,3.10
2022-08-01T09:04:42.624Z,3.13
2022-08-01T09:07:09.851Z,3.90
2022-08-01T09:09:40.890Z,3.83
2022-08-01T09:12:09.738Z,3.57
2022-08-01T09:14:46.125Z,3.90
2022-08-01T09:17:13.343Z,3.63
2022-08-01T09:19:41.961Z,3.07
2022-08-01T09:22:12.005Z,3.50
2022-08-01T09:24:40.982Z,3.40
2022-08-01T09:27:22.831Z,3.13
2022-08-01T09:30:00.611Z,3.23
2022-08-01T09:32:36.575Z,2.40
2022-08-01T09:35:24.251Z,3.30
2022-08-01T09:38:18.509Z,2.60
2022-08-01T09:41:00.016Z,2.23
2022-08-01T09:43:32.022Z,1.80
2022-08-01T09:46:05.695Z,2.60
2022-08-01T09:48:33.043Z,2.20
2022-08-01T09:51:04.241Z,2.27
2022-08-01T09:53:47.349Z,2.57
2022-08-01T09:56:20.589Z,2.63
2022-08-01T09:59:01.384Z,2.57
2022-08-01T10:01:43.446Z,2.43
2022-08-01T10:04:12.476Z,2.00
2022-08-01T10:06:47.330Z,2.00
2022-08-01T10:09:28.306Z,1.73
2022-08-01T10:12:15.985Z,1.87
2022-08-01T10:14:50.830Z,2.20
2022-08-01T10:17:20.230Z,1.90
2022-08-01T10:19:49.313Z,1.60
2022-08-01T10:22:17.376Z,1.87
2022-08-01T10:24:47.669Z,1.63
2022-08-01T10:27:17.098Z,1.70
2022-08-01T10:30:08.666Z,1.70
2022-08-01T10:32:50.482Z,1.30
2022-08-01T10:35:45.869Z,1.50
2022-08-01T10:38:13.439Z,1.60
2022-08-01T10:40:45.142Z,2.13
2022-08-01T10:43:13.419Z,1.60
2022-08-01T10:45:49.391Z,1.83
2022-08-01T10:48:21.746Z,1.57
2022-08-01T10:50:54.921Z,1.10
2022-08-01T10:53:31.707Z,1.20
2022-08-01T10:56:10.054Z,1.60
2022-08-01T10:58:44.374Z,1.63
2022-08-01T11:01:20.577Z,1.40
2022-08-01T11:04:07.389Z,1.53
2022-08-01T11:06:34.644Z,1.60
2022-08-01T11:09:16.276Z,1.60
2022-08-01T11:12:06.125Z,1.23
2022-08-01T11:14:55.228Z,1.50
2022-08-01T11:17:32.619Z,1.40
2022-08-01T11:20:09.358Z,1.10
2022-08-01T11:23:02.474Z,1.10
2022-08-01T11:26:05.619Z,1.20
2022-08-01T11:28:33.238Z,1.20
2022-08-01T11:31:11.025Z,1.10
2022-08-01T11:33:42.210Z,1.20
2022-08-01T11:36:12.751Z,1.07
2022-08-01T11:38:45.561Z,1.33
2022-08-01T11:41:37.283Z,1.13
2022-08-01T11:44:24.801Z,0.77
2022-08-01T11:47:09.833Z,0.97
2022-08-01T11:49:38.534Z,1.00
2022-08-01T11:52:07.653Z,0.90
2022-08-01T11:54:47.240Z,0.80
2022-08-01T11:57:33.992Z,1.13
2022-08-01T12:00:11.649Z,1.53
2022-08-01T12:02:43.055Z,1.20
2022-08-01T12:05:17.845Z,1.10
2022-08-01T12:07:45.801Z,1.30
2022-08-01T12:10:18.416Z,1.40
2022-08-01T12:12:50.989Z,1.10
2022-08-01T12:15:20.691Z,1.47
2022-08-01T12:17:58.403Z,1.27
2022-08-01T12:20:35.003Z,1.20
2022-08-01T12:23:04.562Z,1.70
2022-08-01T12:25:31.822Z,1.57
2022-08-01T12:28:04.403Z,1.50
2022-08-01T12:30:33.143Z,1.80
2022-08-01T12:33:00.308Z,1.50
2022-08-01T12:35:29.143Z,1.50
2022-08-01T12:38:02.385Z,1.40
2022-08-01T12:40:35.682Z,1.53
2022-08-01T12:43:06.792Z,1.43
2022-08-01T12:45:39.267Z,2.00
2022-08-01T12:48:12.600Z,1.60
2022-08-01T12:50:43.498Z,1.10
2022-08-01T12:53:16.953Z,1.30
2022-08-01T12:55:59.624Z,1.00
2022-08-01T12:58:35.530Z,1.40
2022-08-01T13:01:08.447Z,1.20
2022-08-01T13:03:36.708Z,1.30
2022-08-01T13:06:14.561Z,1.20
2022-08-01T13:08:41.872Z,1.40
2022-08-01T13:11:11.735Z,1.17
2022-08-01T13:13:41.449Z,1.10
2022-08-01T13:16:12.433Z,1.20
2022-08-01T13:18:52.757Z,1.10
2022-08-01T13:21:25.743Z,0.93
2022-08-01T13:24:03.500Z,1.10
2022-08-01T13:26:43.477Z,0.80
2022-08-01T13:29:13.278Z,1.00
2022-08-01T13:31:41.686Z,1.10
2022-08-01T13:34:09.237Z,1.10
2022-08-01T13:36:38.030Z,0.90
2022-08-01T13:39:06.212Z,1.27
2022-08-01T13:41:36.466Z,0.90
2022-08-01T13:44:03.741Z,1.07
2022-08-01T13:46:32.335Z,0.90
2022-08-01T13:49:05.197Z,0.90
2022-08-01T13:51:43.563Z,1.00
2022-08-01T13:54:10.855Z,1.03
2022-08-01T13:56:38.112Z,0.90
2022-08-01T13:59:05.317Z,1.07
2022-08-01T14:01:34.608Z,1.27
2022-08-01T14:04:03.317Z,0.80
2022-08-01T14:06:30.593Z,0.90
2022-08-01T14:08:57.902Z,1.10
2022-08-01T14:11:25.276Z,1.23
2022-08-01T14:13:57.913Z,1.17
2022-08-01T14:16:25.637Z,1.00
2022-08-01T14:18:52.957Z,1.20
2022-08-01T14:21:20.149Z,1.20
2022-08-01T14:23:47.390Z,1.33
2022-08-01T14:26:14.574Z,1.10
2022-08-01T14:28:41.844Z,1.40
2022-08-01T14:31:09.141Z,1.10
2022-08-01T14:33:36.469Z,0.93
2022-08-01T14:36:20.557Z,1.20
2022-08-01T14:38:51.557Z,0.93
2022-08-01T14:41:18.995Z,1.23
2022-08-01T14:43:46.337Z,1.50
2022-08-01T14:46:13.817Z,1.23
2022-08-01T14:48:41.483Z,1.00
2022-08-01T14:51:09.191Z,1.73
2022-08-01T14:53:36.468Z,1.10
2022-08-01T14:56:04.823Z,0.90
2022-08-01T14:58:32.206Z,1.50
2022-08-01T15:00:59.793Z,1.10
2022-08-01T15:03:27.350Z,1.00
2022-08-01T15:05:54.572Z,1.20
2022-08-01T15:08:21.881Z,1.30
2022-08-01T15:10:49.098Z,1.10
2022-08-01T15:13:16.316Z,1.13
2022-08-01T15:15:45.710Z,0.90
2022-08-01T15:18:12.938Z,1.23
2022-08-01T15:20:40.351Z,1.30
2022-08-01T15:23:07.989Z,1.10
2022-08-01T15:25:41.408Z,1.10
2022-08-01T15:28:11.098Z,1.27
2022-08-01T15:30:39.255Z,0.97
2022-08-01T15:33:06.903Z,1.10
2022-08-01T15:35:34.796Z,0.73
2022-08-01T15:38:02.400Z,1.00
2022-08-01T15:40:29.661Z,1.10
2022-08-01T15:42:56.898Z,1.10
2022-08-01T15:48:12.160Z,1.40
2022-08-01T15:50:39.502Z,0.90
2022-08-01T15:53:07.121Z,0.90
2022-08-01T15:55:39.055Z,0.87
2022-08-01T15:58:07.780Z,1.00
2022-08-01T16:00:38.742Z,0.93
2022-08-01T16:03:08.060Z,1.00
2022-08-01T16:05:38.275Z,1.20
2022-08-01T16:08:16.672Z,0.93
2022-08-01T16:10:44.199Z,0.80
2022-08-01T16:13:11.815Z,0.90
2022-08-01T16:15:39.654Z,1.03
2022-08-01T16:18:07.780Z,1.30
2022-08-01T16:20:37.420Z,1.30
2022-08-01T16:23:06.369Z,1.10
2022-08-01T16:25:34.086Z,1.23
2022-08-01T16:28:01.549Z,1.37
2022-08-01T16:30:32.015Z,1.00
2022-08-01T16:33:01.348Z,1.17
2022-08-01T16:35:36.277Z,0.93
2022-08-01T16:38:07.396Z,1.00
2022-08-01T16:40:47.366Z,0.80
2022-08-01T16:43:15.809Z,0.97
2022-08-01T16:45:43.368Z,0.90
2022-08-01T16:48:14.892Z,0.90
2022-08-01T16:50:42.963Z,1.20
2022-08-01T16:53:10.685Z,1.60
2022-08-01T16:55:42.665Z,1.03
2022-08-01T16:58:27.779Z,1.10
2022-08-01T17:01:56.214Z,1.13
2022-08-01T17:03:53.724Z,1.00
2022-08-01T17:06:22.342Z,1.17
2022-08-01T17:08:50.371Z,1.20
2022-08-01T17:11:17.565Z,1.10
2022-08-01T17:13:44.760Z,1.30
2022-08-01T17:16:12.279Z,1.10
2022-08-01T17:18:39.776Z,1.13
2022-08-01T17:21:07.038Z,1.40
2022-08-01T17:23:34.633Z,0.90
2022-08-01T17:26:01.891Z,1.20
2022-08-01T17:28:29.087Z,1.00
2022-08-01T17:30:56.446Z,1.00
2022-08-01T17:33:23.721Z,1.20
2022-08-01T17:36:11.056Z,1.07
2022-08-01T17:38:38.341Z,1.00
2022-08-01T17:41:05.531Z,1.10
2022-08-01T17:43:32.721Z,1.50
2022-08-01T17:46:00.017Z,1.20
2022-08-01T17:48:27.253Z,1.10
2022-08-01T17:50:54.526Z,1.13
2022-08-01T17:53:21.716Z,1.00
2022-08-01T17:55:54.404Z,1.30
2022-08-01T17:58:51.217Z,1.00
2022-08-01T18:01:17.004Z,1.30
2022-08-01T18:03:45.377Z,1.00
2022-08-01T18:06:14.310Z,1.13
2022-08-01T18:08:46.306Z,1.30
2022-08-01T18:11:15.090Z,1.23
2022-08-01T18:13:42.560Z,1.00
2022-08-01T18:16:10.616Z,0.90
2022-08-01T18:18:37.837Z,1.40
2022-08-01T18:21:06.036Z,1.07
2022-08-01T18:23:34.358Z,1.20
2022-08-01T18:26:01.890Z,1.47
2022-08-01T18:28:35.180Z,1.30
2022-08-01T18:31:08.509Z,1.03
2022-08-01T18:33:36.348Z,1.20
2022-08-01T18:36:04.652Z,1.20
2022-08-01T18:38:33.318Z,1.10
2022-08-01T18:41:02.543Z,1.03
2022-08-01T18:43:30.037Z,1.50
2022-08-01T18:45:57.687Z,1.50
2022-08-01T18:48:25.397Z,1.73
2022-08-01T18:50:52.915Z,1.80
2022-08-01T18:53:20.549Z,1.30
2022-08-01T18:55:48.093Z,1.73
2022-08-01T18:58:15.663Z,1.37
2022-08-01T19:00:43.259Z,1.67
2022-08-01T19:03:10.828Z,1.30
2022-08-01T19:05:38.342Z,1.30
2022-08-01T19:08:07.940Z,1.60
2022-08-01T19:10:36.993Z,1.37
2022-08-01T19:13:04.525Z,1.30
2022-08-01T19:15:32.076Z,1.50
2022-08-01T19:17:59.622Z,2.63
2022-08-01T19:20:27.604Z,1.40
2022-08-01T19:22:55.214Z,1.70
2022-08-01T19:25:22.779Z,1.80
2022-08-01T19:27:50.874Z,1.47
2022-08-01T19:30:18.973Z,1.43
2022-08-01T19:32:47.825Z,1.70
2022-08-01T19:35:19.976Z,1.53
2022-08-01T19:37:47.512Z,1.87
2022-08-01T19:40:27.171Z,1.67
2022-08-01T19:42:59.330Z,1.73
2022-08-01T19:45:30.065Z,1.47
2022-08-01T19:47:58.068Z,1.43
2022-08-01T19:50:26.554Z,1.60
2022-08-01T19:52:56.329Z,1.60
2022-08-01T19:55:24.655Z,1.70
2022-08-01T20:00:41.327Z,2.03
2022-08-01T20:03:09.767Z,1.93
2022-08-01T20:05:37.475Z,1.80
2022-08-01T20:08:07.010Z,1.40
2022-08-01T20:10:34.568Z,1.97
2022-08-01T20:13:03.021Z,1.83
2022-08-01T20:15:30.908Z,1.70
2022-08-01T20:17:58.614Z,1.77
2022-08-01T20:20:26.643Z,1.60
2022-08-01T20:22:56.615Z,2.10
2022-08-01T20:25:32.116Z,2.00
2022-08-01T20:28:09.985Z,1.97
2022-08-01T20:30:38.370Z,1.93
2022-08-01T20:33:09.588Z,1.77
2022-08-01T20:35:53.438Z,1.70
2022-08-01T20:38:27.998Z,1.93
2022-08-01T20:40:56.636Z,1.63
2022-08-01T20:43:24.276Z,2.00
2022-08-01T20:45:51.794Z,1.80
2022-08-01T20:48:19.761Z,1.93
2022-08-01T20:50:52.688Z,2.23
2022-08-01T20:53:23.045Z,2.23
2022-08-01T20:55:52.130Z,1.43
2022-08-01T20:58:25.900Z,1.60
2022-08-01T21:00:54.762Z,2.10
2022-08-01T21:03:28.094Z,2.63
2022-08-01T21:06:00.654Z,1.50
2022-08-01T21:08:38.154Z,1.73
2022-08-01T21:11:06.596Z,1.73
2022-08-01T21:13:40.541Z,1.70
2022-08-01T21:16:23.999Z,2.13
2022-08-01T21:19:24.111Z,1.97
2022-08-01T21:22:16.415Z,2.10
2022-08-01T21:24:57.921Z,2.17
2022-08-01T21:27:33.298Z,1.70
2022-08-01T21:30:07.195Z,1.73
2022-08-01T21:32:36.076Z,2.00
2022-08-01T21:35:05.274Z,2.63
2022-08-01T21:37:33.310Z,2.67
2022-08-01T21:40:09.658Z,2.67
2022-08-01T21:42:39.198Z,2.23
2022-08-01T21:45:07.281Z,2.27
2022-08-01T21:47:35.686Z,2.37
2022-08-01T21:50:04.013Z,2.17
2022-08-01T21:52:55.384Z,1.87
2022-08-01T21:55:35.641Z,2.37
2022-08-01T21:58:30.738Z,2.47
2022-08-01T22:01:07.299Z,2.30
2022-08-01T22:03:55.894Z,2.47
2022-08-01T22:06:24.617Z,2.10
2022-08-01T22:08:56.171Z,2.20
2022-08-01T22:11:27.933Z,2.07
2022-08-01T22:13:59.647Z,1.83
2022-08-01T22:16:30.230Z,1.60
2022-08-01T22:18:57.721Z,1.70
2022-08-01T22:21:27.450Z,2.70
2022-08-01T22:23:54.753Z,2.00
2022-08-01T22:26:28.586Z,2.00
2022-08-01T22:28:56.347Z,2.17
2022-08-01T22:31:24.119Z,2.00
2022-08-01T22:33:51.802Z,2.40
2022-08-01T22:36:20.299Z,1.53
2022-08-01T22:38:47.724Z,2.40
2022-08-01T22:41:25.652Z,2.40
2022-08-01T22:43:59.493Z,1.83
2022-08-01T22:46:55.938Z,1.83
2022-08-01T22:49:44.180Z,2.07
2022-08-01T22:52:17.728Z,1.90
2022-08-01T22:54:50.612Z,1.93
2022-08-01T22:57:30.111Z,2.00
2022-08-01T23:00:08.229Z,2.70
2022-08-01T23:02:46.653Z,2.17
2022-08-01T23:05:40.989Z,1.90
2022-08-01T23:08:15.901Z,2.30
2022-08-01T23:10:43.297Z,2.13
2022-08-01T23:13:11.955Z,2.17
2022-08-01T23:15:42.870Z,2.00
2022-08-01T23:18:20.973Z,2.37
2022-08-01T23:20:49.925Z,2.13
2022-08-01T23:23:17.874Z,1.83
2022-08-01T23:26:03.975Z,2.17
2022-08-01T23:28:32.636Z,2.20
2022-08-01T23:31:01.105Z,1.97
2022-08-01T23:33:28.323Z,2.13
2022-08-01T23:35:55.747Z,2.30
2022-08-01T23:38:23.135Z,2.80
2022-08-01T23:40:50.399Z,2.20
2022-08-01T23:43:18.118Z,2.30
2022-08-01T23:46:03.791Z,2.53
2022-08-01T23:48:34.004Z,2.57
2022-08-01T23:51:02.071Z,2.17
2022-08-01T23:53:30.985Z,2.27
2022-08-01T23:56:02.541Z,2.17
2022-08-01T23:58:30.408Z,2.43
